CheckWX is a tool to help pilots better visualize weather data.  It is not intended as a substitute for an official pre-flight weather briefing.

18:40:58 UTC

KMLS TAF
Frank Wiley Field Airport
Miles City, Montana, USA
KMLS 081737Z 0818/0918 03013KT 2SM -FZRASN OVC002 TEMPO 0818/0819 1/4SM FZFG FM081900 36017G23KT 1SM -SN BR SCT002 OVC007 FM090100 01007KT 2SM -SN OVC012 FM090500 30007KT P6SM OVC025

Dec-8@
18:00 UTC

Dec-8 @ 18:00 UTC

Dec-8@
19:00 UTC

Dec-8 @ 19:00 UTC

KMLS 081737Z 0818/0918 03013KT 2SM -FZRASN OVC002
Wind
  • 030° at 13 KTS
Conditions
Light Freezing Light Rain, Snow
Cloud Levels
  • Overcast at 200' AGL

Dec-8@
18:00 UTC

Dec-8 @ 18:00 UTC

Dec-8@
19:00 UTC

Dec-8 @ 19:00 UTC

TEMPO 0818/0819 1/4SM FZFG

Temporary

Temporary Changes expected for less than half the time period

Conditions
Freezing Fog

Dec-8@
19:00 UTC

Dec-8 @ 19:00 UTC

Dec-9@
01:00 UTC

Dec-9 @ 01:00 UTC

FM081900 36017G23KT 1SM -SN BR SCT002 OVC007

From

From Standard forecast or significant change

Wind
  • 360° at 17 KTS
  • {Gusting to 23 KTS
Conditions
Light Snow, Mist
Cloud Levels
  • Scattered at 200' AGL
  • Overcast at 700' AGL

Dec-9@
01:00 UTC

Dec-9 @ 01:00 UTC

Dec-9@
05:00 UTC

Dec-9 @ 05:00 UTC

FM090100 01007KT 2SM -SN OVC012

From

From Standard forecast or significant change

Wind
  • 010° at 7 KTS
Conditions
Light Snow
Cloud Levels
  • Overcast at 1,200' AGL

Dec-9@
05:00 UTC

Dec-9 @ 05:00 UTC

Dec-9@
18:00 UTC

Dec-9 @ 18:00 UTC

FM090500 30007KT P6SM OVC025

From

From Standard forecast or significant change

Wind
  • 300° at 7 KTS
Cloud Levels
  • Overcast at 2,500' AGL